Chippewa Valley Regional Airport
KEAU : now visible

Airfield :











YOU CAN JOIN US ON...

 
LOGIN :

Register | Disclaimer

   EN    FR    IT 

 









Legend :    VFR   Marginal VFR   IFR   Intensive IFR   Very Intensive IFR
Visi :
Ceiling :
>= 8 km
>= 3000ft
5 to 8 km
1000 to 3000 ft
1500m to 5 km
500 to 1000 ft
800 to 1500m
200 to 500 ft
< 800m
< 200 ft
Symbols :   Thunderstorms  Fog  Heavy snow  Heavy precipitations  Wind > 20 kt






- Airport Elevation : 913 ft
- IATA code : EAU


KEAU - Chippewa Valley Regional

CURRENT METAR :
  • 201456Z 17007KT 10SM CLR M13/M17 A2993 RMK AO2 SLP158 T11331167 56044

EXPIRED METARs :
  • 201356Z 17009KT 10SM CLR M14/M18 A2998 RMK AO2 PRESFR SLP172 T11441178
  • 201256Z 17008KT 10SM CLR M16/M18 A3001 RMK AO2 SLP186 T11561183

TAF KEAU
Valid from the 20 at 12:00 until the 21 at 12:00 UTC


201120Z 2012/2112 19007KT P6SM SCT200
FM201600 19014G27KT P6SM BKN150
FM202000 23014G25KT P6SM BKN150
FM202300 26012KT P6SM SCT250 WS020/29045KT
KZMP FIR / North America



MET'MAP, your aeronautical weather chart ! - Copyright ORBIFLY December 2007 - Disclaimer

ORBIFLY MET'MAP TEAM :

Programming & Development : Alexandra Zaïnal
Concept & original design : Baudouin d'Aumeries
Assistance for programming : Marc-Olivier Méhu
Technical & hardware support : Manuel Goepfert

Contact : metmap@orbifly.com




SOURCES & CREDITS :

   NOAA       Earth
Advisory